sensor_id;sensor_type;location;lat;lon;timestamp;temperature;humidity
3360;DHT22;1693;49.602;11.046;2023-07-13T02:02:48;20.10;99.90
3360;DHT22;1693;49.602;11.046;2023-07-13T02:05:20;19.90;99.90
3360;DHT22;1693;49.602;11.046;2023-07-13T02:07:47;19.80;99.90
3360;DHT22;1693;49.602;11.046;2023-07-13T02:10:15;19.60;99.90
3360;DHT22;1693;49.602;11.046;2023-07-13T02:12:44;19.50;99.90
3360;DHT22;1693;49.602;11.046;2023-07-13T02:15:13;19.30;99.90
3360;DHT22;1693;49.602;11.046;2023-07-13T02:17:40;19.10;99.90
3360;DHT22;1693;49.602;11.046;2023-07-13T02:20:08;19.10;99.90
3360;DHT22;1693;49.602;11.046;2023-07-13T02:22:36;19.00;99.90
3360;DHT22;1693;49.602;11.046;2023-07-13T02:25:03;19.00;99.90
3360;DHT22;1693;49.602;11.046;2023-07-13T02:27:31;19.00;99.90
3360;DHT22;1693;49.602;11.046;2023-07-13T02:30:01;19.00;99.90
3360;DHT22;1693;49.602;11.046;2023-07-13T02:32:30;19.00;99.90
3360;DHT22;1693;49.602;11.046;2023-07-13T02:34:58;19.00;99.90
3360;DHT22;1693;49.602;11.046;2023-07-13T02:37:25;19.00;99.90
3360;DHT22;1693;49.602;11.046;2023-07-13T02:39:53;19.00;99.90
3360;DHT22;1693;49.602;11.046;2023-07-13T02:42:20;18.90;99.90
3360;DHT22;1693;49.602;11.046;2023-07-13T02:44:49;18.90;99.90
3360;DHT22;1693;49.602;11.046;2023-07-13T02:47:19;18.80;99.90
3360;DHT22;1693;49.602;11.046;2023-07-13T02:49:47;18.80;99.90
3360;DHT22;1693;49.602;11.046;2023-07-13T02:52:14;18.80;99.90
3360;DHT22;1693;49.602;11.046;2023-07-13T02:54:42;18.80;99.90
3360;DHT22;1693;49.602;11.046;2023-07-13T02:57:10;18.70;99.90
3360;DHT22;1693;49.602;11.046;2023-07-13T02:59:38;18.70;99.90
3360;DHT22;1693;49.602;11.046;2023-07-13T03:02:06;18.70;99.90
3360;DHT22;1693;49.602;11.046;2023-07-13T03:04:37;18.60;99.90
3360;DHT22;1693;49.602;11.046;2023-07-13T03:07:06;18.60;99.90
3360;DHT22;1693;49.602;11.046;2023-07-13T03:09:34;18.50;99.90
3360;DHT22;1693;49.602;11.046;2023-07-13T03:12:03;18.50;99.90
3360;DHT22;1693;49.602;11.046;2023-07-13T03:14:30;18.40;99.90
3360;DHT22;1693;49.602;11.046;2023-07-13T03:16:57;18.40;99.90
3360;DHT22;1693;49.602;11.046;2023-07-13T03:19:24;18.40;99.90
3360;DHT22;1693;49.602;11.046;2023-07-13T03:21:54;18.30;99.90
3360;DHT22;1693;49.602;11.046;2023-07-13T03:24:22;18.30;99.90
3360;DHT22;1693;49.602;11.046;2023-07-13T03:26:52;18.20;99.90
3360;DHT22;1693;49.602;11.046;2023-07-13T03:29:19;18.10;99.90
3360;DHT22;1693;49.602;11.046;2023-07-13T03:31:47;18.10;99.90
3360;DHT22;1693;49.602;11.046;2023-07-13T03:34:14;18.10;99.90
3360;DHT22;1693;49.602;11.046;2023-07-13T03:36:43;18.10;99.90
3360;DHT22;1693;49.602;11.046;2023-07-13T03:39:12;18.10;99.90
3360;DHT22;1693;49.602;11.046;2023-07-13T03:41:40;18.00;99.90
3360;DHT22;1693;49.602;11.046;2023-07-13T03:44:07;18.00;99.90
3360;DHT22;1693;49.602;11.046;2023-07-13T03:46:36;18.10;99.90
3360;DHT22;1693;49.602;11.046;2023-07-13T03:49:04;18.00;99.90
3360;DHT22;1693;49.602;11.046;2023-07-13T03:51:32;17.90;99.90
3360;DHT22;1693;49.602;11.046;2023-07-13T03:53:59;17.90;99.90
3360;DHT22;1693;49.602;11.046;2023-07-13T03:56:30;17.80;99.90
3360;DHT22;1693;49.602;11.046;2023-07-13T03:58:59;17.80;99.90
3360;DHT22;1693;49.602;11.046;2023-07-13T04:01:27;17.90;99.90
3360;DHT22;1693;49.602;11.046;2023-07-13T04:03:55;17.90;99.90
3360;DHT22;1693;49.602;11.046;2023-07-13T04:06:23;17.80;99.90
3360;DHT22;1693;49.602;11.046;2023-07-13T04:08:52;17.80;99.90
3360;DHT22;1693;49.602;11.046;2023-07-13T04:11:23;17.90;99.90
3360;DHT22;1693;49.602;11.046;2023-07-13T04:13:52;17.80;99.90
3360;DHT22;1693;49.602;11.046;2023-07-13T04:16:19;17.80;99.90
3360;DHT22;1693;49.602;11.046;2023-07-13T04:18:47;17.80;99.90
3360;DHT22;1693;49.602;11.046;2023-07-13T04:21:16;17.80;99.90
3360;DHT22;1693;49.602;11.046;2023-07-13T04:23:44;17.80;99.90
3360;DHT22;1693;49.602;11.046;2023-07-13T04:26:13;17.90;99.90
3360;DHT22;1693;49.602;11.046;2023-07-13T04:28:41;17.80;99.90
3360;DHT22;1693;49.602;11.046;2023-07-13T04:31:10;17.80;99.90
3360;DHT22;1693;49.602;11.046;2023-07-13T04:33:38;17.80;99.90
3360;DHT22;1693;49.602;11.046;2023-07-13T04:36:08;17.80;99.90
3360;DHT22;1693;49.602;11.046;2023-07-13T04:38:37;17.80;99.90
3360;DHT22;1693;49.602;11.046;2023-07-13T04:41:07;17.80;99.90
3360;DHT22;1693;49.602;11.046;2023-07-13T04:43:34;17.90;99.90
3360;DHT22;1693;49.602;11.046;2023-07-13T04:46:06;17.90;99.90
3360;DHT22;1693;49.602;11.046;2023-07-13T04:48:35;18.00;99.90
3360;DHT22;1693;49.602;11.046;2023-07-13T04:51:04;18.00;99.90
3360;DHT22;1693;49.602;11.046;2023-07-13T04:53:33;18.00;99.90
3360;DHT22;1693;49.602;11.046;2023-07-13T04:56:02;18.00;99.90
3360;DHT22;1693;49.602;11.046;2023-07-13T04:58:30;18.10;99.90
3360;DHT22;1693;49.602;11.046;2023-07-13T05:01:01;18.20;99.90
3360;DHT22;1693;49.602;11.046;2023-07-13T05:03:29;18.20;99.90
3360;DHT22;1693;49.602;11.046;2023-07-13T05:05:59;18.30;99.90
3360;DHT22;1693;49.602;11.046;2023-07-13T05:08:27;18.30;99.90
3360;DHT22;1693;49.602;11.046;2023-07-13T05:10:54;18.40;99.90
3360;DHT22;1693;49.602;11.046;2023-07-13T05:13:21;18.40;99.90
3360;DHT22;1693;49.602;11.046;2023-07-13T05:15:56;18.40;99.90
3360;DHT22;1693;49.602;11.046;2023-07-13T05:18:25;18.50;99.90
3360;DHT22;1693;49.602;11.046;2023-07-13T05:21:01;18.60;99.90
3360;DHT22;1693;49.602;11.046;2023-07-13T05:23:33;18.80;99.90
3360;DHT22;1693;49.602;11.046;2023-07-13T05:26:03;19.00;99.90
3360;DHT22;1693;49.602;11.046;2023-07-13T05:28:31;19.10;99.90
3360;DHT22;1693;49.602;11.046;2023-07-13T05:31:00;19.20;99.90
3360;DHT22;1693;49.602;11.046;2023-07-13T05:33:28;19.30;99.90
3360;DHT22;1693;49.602;11.046;2023-07-13T05:35:55;19.50;99.90
3360;DHT22;1693;49.602;11.046;2023-07-13T05:38:24;19.60;99.90
3360;DHT22;1693;49.602;11.046;2023-07-13T05:40:52;19.80;99.90
3360;DHT22;1693;49.602;11.046;2023-07-13T05:43:21;19.90;99.90
3360;DHT22;1693;49.602;11.046;2023-07-13T05:45:48;19.80;99.90
3360;DHT22;1693;49.602;11.046;2023-07-13T05:48:16;19.90;99.90
3360;DHT22;1693;49.602;11.046;2023-07-13T05:50:44;19.90;99.90
3360;DHT22;1693;49.602;11.046;2023-07-13T05:53:12;20.00;99.90
3360;DHT22;1693;49.602;11.046;2023-07-13T05:55:42;20.00;99.90
3360;DHT22;1693;49.602;11.046;2023-07-13T05:58:11;20.10;99.90
3360;DHT22;1693;49.602;11.046;2023-07-13T06:00:40;19.90;99.90
3360;DHT22;1693;49.602;11.046;2023-07-13T06:03:08;19.90;99.90
3360;DHT22;1693;49.602;11.046;2023-07-13T06:05:37;19.90;99.90
3360;DHT22;1693;49.602;11.046;2023-07-13T06:08:07;20.00;99.90
3360;DHT22;1693;49.602;11.046;2023-07-13T06:10:34;20.10;99.90
3360;DHT22;1693;49.602;11.046;2023-07-13T06:13:03;20.10;99.90
3360;DHT22;1693;49.602;11.046;2023-07-13T06:15:30;20.10;99.90
3360;DHT22;1693;49.602;11.046;2023-07-13T06:17:57;20.00;99.90
3360;DHT22;1693;49.602;11.046;2023-07-13T06:20:24;20.20;99.90
3360;DHT22;1693;49.602;11.046;2023-07-13T06:22:51;20.20;99.90
3360;DHT22;1693;49.602;11.046;2023-07-13T06:25:18;20.50;99.90
3360;DHT22;1693;49.602;11.046;2023-07-13T06:27:45;20.80;99.90
3360;DHT22;1693;49.602;11.046;2023-07-13T06:30:15;20.90;99.90
3360;DHT22;1693;49.602;11.046;2023-07-13T06:32:43;21.10;99.90
3360;DHT22;1693;49.602;11.046;2023-07-13T06:35:10;21.00;99.90
3360;DHT22;1693;49.602;11.046;2023-07-13T06:37:39;21.20;99.90
3360;DHT22;1693;49.602;11.046;2023-07-13T06:40:08;21.20;99.90
3360;DHT22;1693;49.602;11.046;2023-07-13T06:42:36;21.10;99.90
3360;DHT22;1693;49.602;11.046;2023-07-13T06:45:06;21.00;99.90
3360;DHT22;1693;49.602;11.046;2023-07-13T06:47:34;21.00;99.90
3360;DHT22;1693;49.602;11.046;2023-07-13T06:50:03;21.20;99.90
3360;DHT22;1693;49.602;11.046;2023-07-13T06:52:30;21.40;99.90
3360;DHT22;1693;49.602;11.046;2023-07-13T06:54:58;21.50;99.90
3360;DHT22;1693;49.602;11.046;2023-07-13T06:57:26;21.20;99.90
3360;DHT22;1693;49.602;11.046;2023-07-13T06:59:54;21.20;99.90
3360;DHT22;1693;49.602;11.046;2023-07-13T07:02:21;21.30;99.90
3360;DHT22;1693;49.602;11.046;2023-07-13T07:04:49;21.50;99.90
3360;DHT22;1693;49.602;11.046;2023-07-13T07:07:18;21.70;99.90
3360;DHT22;1693;49.602;11.046;2023-07-13T07:22:04;22.70;99.90
3360;DHT22;1693;49.602;11.046;2023-07-13T07:24:31;22.70;98.00
3360;DHT22;1693;49.602;11.046;2023-07-13T07:26:59;22.50;97.30
3360;DHT22;1693;49.602;11.046;2023-07-13T07:34:21;22.30;99.90
3360;DHT22;1693;49.602;11.046;2023-07-13T07:36:49;22.40;97.80
3360;DHT22;1693;49.602;11.046;2023-07-13T07:39:19;22.60;96.90
3360;DHT22;1693;49.602;11.046;2023-07-13T07:41:47;22.50;96.90
3360;DHT22;1693;49.602;11.046;2023-07-13T07:44:15;22.00;96.50
3360;DHT22;1693;49.602;11.046;2023-07-13T07:46:44;21.90;97.70
3360;DHT22;1693;49.602;11.046;2023-07-13T07:49:13;22.10;97.20
3360;DHT22;1693;49.602;11.046;2023-07-13T07:51:42;22.40;98.00
3360;DHT22;1693;49.602;11.046;2023-07-13T07:54:09;22.60;96.60
3360;DHT22;1693;49.602;11.046;2023-07-13T07:56:38;23.00;96.50
3360;DHT22;1693;49.602;11.046;2023-07-13T07:59:08;22.80;93.30
3360;DHT22;1693;49.602;11.046;2023-07-13T08:01:38;22.50;93.40
3360;DHT22;1693;49.602;11.046;2023-07-13T08:04:05;22.40;93.30
3360;DHT22;1693;49.602;11.046;2023-07-13T08:06:32;22.40;93.70
3360;DHT22;1693;49.602;11.046;2023-07-13T08:09:01;22.30;92.60
3360;DHT22;1693;49.602;11.046;2023-07-13T08:11:29;22.30;93.20
3360;DHT22;1693;49.602;11.046;2023-07-13T08:14:03;22.40;93.00
3360;DHT22;1693;49.602;11.046;2023-07-13T08:16:30;22.20;92.40
3360;DHT22;1693;49.602;11.046;2023-07-13T08:18:58;22.20;93.30
3360;DHT22;1693;49.602;11.046;2023-07-13T08:21:25;22.00;92.60
3360;DHT22;1693;49.602;11.046;2023-07-13T08:23:52;22.00;92.50
3360;DHT22;1693;49.602;11.046;2023-07-13T08:26:19;22.30;93.30
3360;DHT22;1693;49.602;11.046;2023-07-13T08:28:47;22.30;91.00
3360;DHT22;1693;49.602;11.046;2023-07-13T08:31:17;22.30;91.20
3360;DHT22;1693;49.602;11.046;2023-07-13T08:33:44;22.40;91.90
3360;DHT22;1693;49.602;11.046;2023-07-13T08:36:11;22.50;90.90
3360;DHT22;1693;49.602;11.046;2023-07-13T08:38:39;22.60;91.50
3360;DHT22;1693;49.602;11.046;2023-07-13T08:41:12;23.00;89.20
3360;DHT22;1693;49.602;11.046;2023-07-13T08:43:45;22.90;84.10
3360;DHT22;1693;49.602;11.046;2023-07-13T08:46:19;22.90;82.00
3360;DHT22;1693;49.602;11.046;2023-07-13T08:48:51;22.90;80.10
3360;DHT22;1693;49.602;11.046;2023-07-13T08:51:36;22.90;78.30
3360;DHT22;1693;49.602;11.046;2023-07-13T08:54:16;22.90;77.70
3360;DHT22;1693;49.602;11.046;2023-07-13T08:56:46;22.90;75.00
3360;DHT22;1693;49.602;11.046;2023-07-13T08:59:16;23.00;78.00
3360;DHT22;1693;49.602;11.046;2023-07-13T09:04:46;23.10;77.30
3360;DHT22;1693;49.602;11.046;2023-07-13T09:07:23;23.10;74.00
3360;DHT22;1693;49.602;11.046;2023-07-13T09:10:02;23.10;74.80
3360;DHT22;1693;49.602;11.046;2023-07-13T09:12:40;23.10;74.60
3360;DHT22;1693;49.602;11.046;2023-07-13T09:15:27;23.00;74.80
3360;DHT22;1693;49.602;11.046;2023-07-13T09:18:02;23.10;74.90
3360;DHT22;1693;49.602;11.046;2023-07-13T09:20:33;23.10;73.50
3360;DHT22;1693;49.602;11.046;2023-07-13T09:23:05;23.30;73.60
3360;DHT22;1693;49.602;11.046;2023-07-13T09:25:35;23.50;72.00
3360;DHT22;1693;49.602;11.046;2023-07-13T09:28:10;23.60;72.90
3360;DHT22;1693;49.602;11.046;2023-07-13T09:30:45;23.70;70.60
3360;DHT22;1693;49.602;11.046;2023-07-13T09:33:15;23.50;66.50
3360;DHT22;1693;49.602;11.046;2023-07-13T09:35:43;23.50;66.70
3360;DHT22;1693;49.602;11.046;2023-07-13T09:38:13;23.50;66.90
3360;DHT22;1693;49.602;11.046;2023-07-13T09:41:00;23.90;67.10
3360;DHT22;1693;49.602;11.046;2023-07-13T09:43:29;23.80;65.40
3360;DHT22;1693;49.602;11.046;2023-07-13T09:45:57;23.70;67.40
3360;DHT22;1693;49.602;11.046;2023-07-13T09:48:34;23.60;68.20
3360;DHT22;1693;49.602;11.046;2023-07-13T09:51:09;23.60;68.60
3360;DHT22;1693;49.602;11.046;2023-07-13T09:53:41;23.60;68.10
3360;DHT22;1693;49.602;11.046;2023-07-13T09:56:19;23.90;71.50
3360;DHT22;1693;49.602;11.046;2023-07-13T09:58:47;24.00;66.40
3360;DHT22;1693;49.602;11.046;2023-07-13T10:01:14;23.80;66.00
3360;DHT22;1693;49.602;11.046;2023-07-13T10:03:52;23.60;67.40
3360;DHT22;1693;49.602;11.046;2023-07-13T10:06:21;23.50;64.60
3360;DHT22;1693;49.602;11.046;2023-07-13T10:08:50;23.50;65.30
3360;DHT22;1693;49.602;11.046;2023-07-13T10:11:20;23.70;64.30
3360;DHT22;1693;49.602;11.046;2023-07-13T10:13:52;23.80;64.80
3360;DHT22;1693;49.602;11.046;2023-07-13T10:16:24;23.80;64.20
3360;DHT22;1693;49.602;11.046;2023-07-13T10:18:56;24.10;64.90
3360;DHT22;1693;49.602;11.046;2023-07-13T10:21:30;24.70;63.70
3360;DHT22;1693;49.602;11.046;2023-07-13T10:24:22;25.20;62.90
3360;DHT22;1693;49.602;11.046;2023-07-13T10:26:54;25.60;61.40
3360;DHT22;1693;49.602;11.046;2023-07-13T10:29:25;25.60;62.60
3360;DHT22;1693;49.602;11.046;2023-07-13T10:31:55;25.60;60.00
3360;DHT22;1693;49.602;11.046;2023-07-13T10:34:25;26.00;59.70
3360;DHT22;1693;49.602;11.046;2023-07-13T10:36:52;25.70;59.60
3360;DHT22;1693;49.602;11.046;2023-07-13T10:39:22;25.70;58.80
3360;DHT22;1693;49.602;11.046;2023-07-13T10:41:53;25.50;59.20
3360;DHT22;1693;49.602;11.046;2023-07-13T10:44:24;25.50;59.40
3360;DHT22;1693;49.602;11.046;2023-07-13T10:46:57;25.40;59.30
3360;DHT22;1693;49.602;11.046;2023-07-13T10:49:27;25.50;59.10
3360;DHT22;1693;49.602;11.046;2023-07-13T10:51:55;25.60;60.20
3360;DHT22;1693;49.602;11.046;2023-07-13T10:54:27;25.10;59.80
3360;DHT22;1693;49.602;11.046;2023-07-13T10:57:12;24.90;60.20
3360;DHT22;1693;49.602;11.046;2023-07-13T10:59:42;24.80;59.50
3360;DHT22;1693;49.602;11.046;2023-07-13T11:02:21;25.00;59.30
3360;DHT22;1693;49.602;11.046;2023-07-13T11:04:53;25.00;60.30
3360;DHT22;1693;49.602;11.046;2023-07-13T11:07:22;24.90;59.70
3360;DHT22;1693;49.602;11.046;2023-07-13T11:09:51;25.00;60.00
3360;DHT22;1693;49.602;11.046;2023-07-13T11:17:37;28.20;56.80
3360;DHT22;1693;49.602;11.046;2023-07-13T11:28:13;27.50;93.50
3360;DHT22;1693;49.602;11.046;2023-07-13T11:30:47;27.50;54.80
3360;DHT22;1693;49.602;11.046;2023-07-13T11:33:19;26.50;55.40
3360;DHT22;1693;49.602;11.046;2023-07-13T11:36:04;26.10;56.10
3360;DHT22;1693;49.602;11.046;2023-07-13T11:38:35;26.10;57.20
3360;DHT22;1693;49.602;11.046;2023-07-13T11:48:44;28.40;52.80
3360;DHT22;1693;49.602;11.046;2023-07-13T11:51:20;28.30;53.80
3360;DHT22;1693;49.602;11.046;2023-07-13T11:53:50;27.70;53.40
3360;DHT22;1693;49.602;11.046;2023-07-13T11:56:18;27.70;54.00
3360;DHT22;1693;49.602;11.046;2023-07-13T11:58:49;27.80;55.80
3360;DHT22;1693;49.602;11.046;2023-07-13T12:01:20;28.00;54.20
3360;DHT22;1693;49.602;11.046;2023-07-13T12:03:48;27.70;53.90
3360;DHT22;1693;49.602;11.046;2023-07-13T12:06:27;28.30;54.60
3360;DHT22;1693;49.602;11.046;2023-07-13T12:08:57;28.40;54.30
3360;DHT22;1693;49.602;11.046;2023-07-13T12:11:25;28.30;54.30
3360;DHT22;1693;49.602;11.046;2023-07-13T12:13:52;27.50;53.30
3360;DHT22;1693;49.602;11.046;2023-07-13T12:16:26;27.70;53.70
3360;DHT22;1693;49.602;11.046;2023-07-13T12:18:54;27.80;54.20
3360;DHT22;1693;49.602;11.046;2023-07-13T12:21:28;28.10;54.00
3360;DHT22;1693;49.602;11.046;2023-07-13T12:23:56;27.60;53.60
3360;DHT22;1693;49.602;11.046;2023-07-13T12:26:23;27.60;54.10
3360;DHT22;1693;49.602;11.046;2023-07-13T12:28:53;28.00;54.10
3360;DHT22;1693;49.602;11.046;2023-07-13T12:31:32;28.70;53.60
3360;DHT22;1693;49.602;11.046;2023-07-13T12:34:02;28.50;53.40
3360;DHT22;1693;49.602;11.046;2023-07-13T12:36:36;28.40;53.00
3360;DHT22;1693;49.602;11.046;2023-07-13T12:39:13;29.40;52.50
3360;DHT22;1693;49.602;11.046;2023-07-13T12:41:41;29.30;52.20
3360;DHT22;1693;49.602;11.046;2023-07-13T12:44:11;29.10;52.50
3360;DHT22;1693;49.602;11.046;2023-07-13T12:46:39;28.60;52.30
3360;DHT22;1693;49.602;11.046;2023-07-13T12:49:07;28.80;52.90
3360;DHT22;1693;49.602;11.046;2023-07-13T12:51:37;27.90;52.50
3360;DHT22;1693;49.602;11.046;2023-07-13T12:54:15;27.50;53.80
3360;DHT22;1693;49.602;11.046;2023-07-13T12:56:43;27.50;53.80
3360;DHT22;1693;49.602;11.046;2023-07-13T12:59:17;27.20;54.40
3360;DHT22;1693;49.602;11.046;2023-07-13T13:01:46;27.50;55.10
3360;DHT22;1693;49.602;11.046;2023-07-13T13:04:15;27.70;54.60
3360;DHT22;1693;49.602;11.046;2023-07-13T13:06:44;27.60;54.90
3360;DHT22;1693;49.602;11.046;2023-07-13T13:09:17;27.70;55.30
3360;DHT22;1693;49.602;11.046;2023-07-13T13:11:46;28.80;55.20
3360;DHT22;1693;49.602;11.046;2023-07-13T13:14:13;29.50;53.80
3360;DHT22;1693;49.602;11.046;2023-07-13T13:16:46;29.90;51.80
3360;DHT22;1693;49.602;11.046;2023-07-13T13:19:20;30.40;52.10
3360;DHT22;1693;49.602;11.046;2023-07-13T13:21:52;30.60;51.10
3360;DHT22;1693;49.602;11.046;2023-07-13T13:24:24;30.30;50.50
3360;DHT22;1693;49.602;11.046;2023-07-13T13:26:52;30.30;51.00
3360;DHT22;1693;49.602;11.046;2023-07-13T13:29:21;31.10;50.60
3360;DHT22;1693;49.602;11.046;2023-07-13T13:31:50;30.10;51.00
3360;DHT22;1693;49.602;11.046;2023-07-13T13:36:47;32.00;50.40
3360;DHT22;1693;49.602;11.046;2023-07-13T13:39:21;32.60;49.10
3360;DHT22;1693;49.602;11.046;2023-07-13T13:41:51;30.90;48.60
3360;DHT22;1693;49.602;11.046;2023-07-13T13:44:20;29.80;50.10
3360;DHT22;1693;49.602;11.046;2023-07-13T13:46:49;29.30;50.90
3360;DHT22;1693;49.602;11.046;2023-07-13T13:49:19;30.00;51.20
3360;DHT22;1693;49.602;11.046;2023-07-13T13:51:49;29.50;50.60
3360;DHT22;1693;49.602;11.046;2023-07-13T13:57:00;29.80;89.10
3360;DHT22;1693;49.602;11.046;2023-07-13T13:59:27;30.80;49.80
3360;DHT22;1693;49.602;11.046;2023-07-13T14:01:55;30.90;50.00
3360;DHT22;1693;49.602;11.046;2023-07-13T14:04:27;30.50;49.90
3360;DHT22;1693;49.602;11.046;2023-07-13T14:06:54;30.40;49.00
3360;DHT22;1693;49.602;11.046;2023-07-13T14:09:20;30.30;48.90
3360;DHT22;1693;49.602;11.046;2023-07-13T14:11:50;31.70;48.70
3360;DHT22;1693;49.602;11.046;2023-07-13T14:16:48;33.00;83.90
3360;DHT22;1693;49.602;11.046;2023-07-13T14:19:19;31.80;46.00
3360;DHT22;1693;49.602;11.046;2023-07-13T14:21:46;30.80;46.80
3360;DHT22;1693;49.602;11.046;2023-07-13T14:44:16;29.30;49.70
3360;DHT22;1693;49.602;11.046;2023-07-13T14:46:45;29.80;49.80
3360;DHT22;1693;49.602;11.046;2023-07-13T14:49:16;31.30;48.80
3360;DHT22;1693;49.602;11.046;2023-07-13T14:51:48;31.10;47.70
3360;DHT22;1693;49.602;11.046;2023-07-13T14:54:14;31.50;47.80
3360;DHT22;1693;49.602;11.046;2023-07-13T14:56:42;31.80;46.40
3360;DHT22;1693;49.602;11.046;2023-07-13T14:59:10;31.10;46.80
3360;DHT22;1693;49.602;11.046;2023-07-13T15:01:40;31.20;47.20
3360;DHT22;1693;49.602;11.046;2023-07-13T15:04:08;30.50;46.90
3360;DHT22;1693;49.602;11.046;2023-07-13T15:06:56;29.80;47.80
3360;DHT22;1693;49.602;11.046;2023-07-13T15:09:26;29.50;48.60
3360;DHT22;1693;49.602;11.046;2023-07-13T15:11:58;30.70;49.30
3360;DHT22;1693;49.602;11.046;2023-07-13T15:14:29;32.10;46.40
3360;DHT22;1693;49.602;11.046;2023-07-13T15:17:00;31.80;46.60
3360;DHT22;1693;49.602;11.046;2023-07-13T15:19:27;31.10;46.80
3360;DHT22;1693;49.602;11.046;2023-07-13T15:21:55;31.40;47.40
3360;DHT22;1693;49.602;11.046;2023-07-13T15:24:23;31.30;47.80
3360;DHT22;1693;49.602;11.046;2023-07-13T15:26:50;30.40;47.10
3360;DHT22;1693;49.602;11.046;2023-07-13T15:46:52;30.40;48.10
3360;DHT22;1693;49.602;11.046;2023-07-13T15:49:22;30.70;46.90
3360;DHT22;1693;49.602;11.046;2023-07-13T15:51:50;31.20;46.70
3360;DHT22;1693;49.602;11.046;2023-07-13T15:54:19;32.40;46.00
3360;DHT22;1693;49.602;11.046;2023-07-13T15:56:52;32.20;45.90
3360;DHT22;1693;49.602;11.046;2023-07-13T16:01:49;30.50;81.30
3360;DHT22;1693;49.602;11.046;2023-07-13T16:04:17;29.80;47.70
3360;DHT22;1693;49.602;11.046;2023-07-13T16:06:47;28.70;48.80
3360;DHT22;1693;49.602;11.046;2023-07-13T16:09:19;28.30;50.20
3360;DHT22;1693;49.602;11.046;2023-07-13T16:14:15;31.80;88.80
3360;DHT22;1693;49.602;11.046;2023-07-13T16:19:11;31.70;46.00
3360;DHT22;1693;49.602;11.046;2023-07-13T16:21:43;31.30;46.10
3360;DHT22;1693;49.602;11.046;2023-07-13T16:24:17;30.10;47.30
3360;DHT22;1693;49.602;11.046;2023-07-13T16:26:46;29.50;47.90
3360;DHT22;1693;49.602;11.046;2023-07-13T16:31:55;28.40;74.10
3360;DHT22;1693;49.602;11.046;2023-07-13T16:34:22;28.50;74.50
3360;DHT22;1693;49.602;11.046;2023-07-13T16:36:53;29.10;73.80
3360;DHT22;1693;49.602;11.046;2023-07-13T16:39:21;29.00;74.40
3360;DHT22;1693;49.602;11.046;2023-07-13T16:41:50;29.00;82.00
3360;DHT22;1693;49.602;11.046;2023-07-13T16:44:19;29.30;79.60
3360;DHT22;1693;49.602;11.046;2023-07-13T16:46:49;30.40;48.90
3360;DHT22;1693;49.602;11.046;2023-07-13T16:49:23;31.90;47.90
3360;DHT22;1693;49.602;11.046;2023-07-13T16:51:53;31.40;46.80
3360;DHT22;1693;49.602;11.046;2023-07-13T16:54:22;30.70;47.50
3360;DHT22;1693;49.602;11.046;2023-07-13T16:56:49;30.10;46.70
3360;DHT22;1693;49.602;11.046;2023-07-13T16:59:18;30.70;47.10
3360;DHT22;1693;49.602;11.046;2023-07-13T17:01:46;31.20;46.50
3360;DHT22;1693;49.602;11.046;2023-07-13T17:04:14;32.10;45.20
3360;DHT22;1693;49.602;11.046;2023-07-13T17:06:43;31.30;45.50
3360;DHT22;1693;49.602;11.046;2023-07-13T17:09:13;31.80;45.80
3360;DHT22;1693;49.602;11.046;2023-07-13T17:11:43;32.40;44.80
3360;DHT22;1693;49.602;11.046;2023-07-13T17:14:14;31.20;45.20
3360;DHT22;1693;49.602;11.046;2023-07-13T17:16:45;30.00;46.30
3360;DHT22;1693;49.602;11.046;2023-07-13T17:19:14;30.20;47.10
3360;DHT22;1693;49.602;11.046;2023-07-13T17:21:42;29.40;47.40
3360;DHT22;1693;49.602;11.046;2023-07-13T17:24:15;29.60;48.40
3360;DHT22;1693;49.602;11.046;2023-07-13T17:26:45;30.20;47.40
3360;DHT22;1693;49.602;11.046;2023-07-13T17:29:12;30.00;47.20
3360;DHT22;1693;49.602;11.046;2023-07-13T17:31:40;30.20;47.00
3360;DHT22;1693;49.602;11.046;2023-07-13T17:36:37;31.10;45.90
3360;DHT22;1693;49.602;11.046;2023-07-13T17:39:14;31.80;45.60
3360;DHT22;1693;49.602;11.046;2023-07-13T17:41:41;32.00;45.40
3360;DHT22;1693;49.602;11.046;2023-07-13T17:44:11;32.10;44.90
3360;DHT22;1693;49.602;11.046;2023-07-13T17:46:40;32.70;45.30
3360;DHT22;1693;49.602;11.046;2023-07-13T17:49:18;32.10;44.40
3360;DHT22;1693;49.602;11.046;2023-07-13T17:51:47;31.20;44.90
3360;DHT22;1693;49.602;11.046;2023-07-13T17:54:15;31.10;45.60
3360;DHT22;1693;49.602;11.046;2023-07-13T17:56:43;30.90;45.20
3360;DHT22;1693;49.602;11.046;2023-07-13T17:59:11;29.20;46.60
3360;DHT22;1693;49.602;11.046;2023-07-13T18:09:15;26.10;91.30
3360;DHT22;1693;49.602;11.046;2023-07-13T18:11:43;25.80;50.80
3360;DHT22;1693;49.602;11.046;2023-07-13T18:14:12;25.50;51.30
3360;DHT22;1693;49.602;11.046;2023-07-13T18:16:40;25.10;51.90
3360;DHT22;1693;49.602;11.046;2023-07-13T18:29:22;24.40;91.80
3360;DHT22;1693;49.602;11.046;2023-07-13T22:52:43;16.70;99.90
3360;DHT22;1693;49.602;11.046;2023-07-13T22:55:14;16.60;99.90
3360;DHT22;1693;49.602;11.046;2023-07-13T22:57:43;16.60;99.90
3360;DHT22;1693;49.602;11.046;2023-07-13T23:00:16;16.50;99.90
3360;DHT22;1693;49.602;11.046;2023-07-13T23:02:45;16.40;99.90
3360;DHT22;1693;49.602;11.046;2023-07-13T23:05:17;16.30;99.90
3360;DHT22;1693;49.602;11.046;2023-07-13T23:07:44;16.30;99.90
3360;DHT22;1693;49.602;11.046;2023-07-13T23:10:15;16.30;99.90
3360;DHT22;1693;49.602;11.046;2023-07-13T23:12:43;16.10;99.90
3360;DHT22;1693;49.602;11.046;2023-07-13T23:15:11;16.10;99.90
3360;DHT22;1693;49.602;11.046;2023-07-13T23:17:38;16.10;99.90
3360;DHT22;1693;49.602;11.046;2023-07-13T23:20:18;16.00;99.90
3360;DHT22;1693;49.602;11.046;2023-07-13T23:22:46;15.90;99.90
3360;DHT22;1693;49.602;11.046;2023-07-13T23:25:14;15.70;99.90
3360;DHT22;1693;49.602;11.046;2023-07-13T23:27:42;15.70;99.90
3360;DHT22;1693;49.602;11.046;2023-07-13T23:30:13;15.70;99.90
3360;DHT22;1693;49.602;11.046;2023-07-13T23:32:41;15.60;99.90
3360;DHT22;1693;49.602;11.046;2023-07-13T23:35:11;15.50;99.90
3360;DHT22;1693;49.602;11.046;2023-07-13T23:37:40;15.30;99.90
3360;DHT22;1693;49.602;11.046;2023-07-13T23:40:13;15.20;99.90
3360;DHT22;1693;49.602;11.046;2023-07-13T23:42:40;15.00;99.90
3360;DHT22;1693;49.602;11.046;2023-07-13T23:45:12;14.90;99.90
3360;DHT22;1693;49.602;11.046;2023-07-13T23:47:39;14.90;99.90
3360;DHT22;1693;49.602;11.046;2023-07-13T23:50:11;14.80;99.90
3360;DHT22;1693;49.602;11.046;2023-07-13T23:52:40;14.70;99.90
3360;DHT22;1693;49.602;11.046;2023-07-13T23:55:14;14.70;99.90
3360;DHT22;1693;49.602;11.046;2023-07-13T23:57:42;14.60;99.90
